Holden, West Virginia
Current Conditions -  °F | °C
As of 1:00 AM on Sunday 26 Oct 2014 (Local Time) from KSJS Reporting Station
Clear Clear  
Wind Chill: 60°   Ceiling: Unl
Heat Index: 60°   Visibility: 10mi
Dew Point: 56°   Wind: 6mph
Humidity: 86%   Direction: 260°W
Pressure: 29.93"   Gusts: NA
Location:  37.81°N, 82.07°W
Report Text: KSJS 260500Z AUTO 26005KT 10SM CLR 16/13 A2993 RMK AO2 T01550131
Loading
Personal Weather Stations






























Interactive Weather Map
Tropical Storm Tracking
New forecast layout! Learn more

10-Day Weather Forecast

Advertisements
Track Severe Weather on mobile